sensor_id;sensor_type;location;lat;lon;timestamp;P1;P2;P0
62054;PMS5003;48653;51.742;-1.256;2022-07-24T00:00:35;5;5;
62054;PMS5003;48653;51.742;-1.256;2022-07-24T00:03:02;10;8;
62054;PMS5003;48653;51.742;-1.256;2022-07-24T00:05:29;5;4;
62054;PMS5003;48653;51.742;-1.256;2022-07-24T00:07:57;8;7;
62054;PMS5003;48653;51.742;-1.256;2022-07-24T00:10:24;11;9;
62054;PMS5003;48653;51.742;-1.256;2022-07-24T00:12:52;7;5;
62054;PMS5003;48653;51.742;-1.256;2022-07-24T00:15:26;7;7;
62054;PMS5003;48653;51.742;-1.256;2022-07-24T00:17:53;7;6;
62054;PMS5003;48653;51.742;-1.256;2022-07-24T00:20:23;8;7;
62054;PMS5003;48653;51.742;-1.256;2022-07-24T00:22:51;7;6;
62054;PMS5003;48653;51.742;-1.256;2022-07-24T00:25:18;6;6;
62054;PMS5003;48653;51.742;-1.256;2022-07-24T00:27:45;6;6;
62054;PMS5003;48653;51.742;-1.256;2022-07-24T00:30:13;8;6;
62054;PMS5003;48653;51.742;-1.256;2022-07-24T00:32:46;9;8;
62054;PMS5003;48653;51.742;-1.256;2022-07-24T00:35:13;10;6;
62054;PMS5003;48653;51.742;-1.256;2022-07-24T00:37:40;8;8;
62054;PMS5003;48653;51.742;-1.256;2022-07-24T00:40:08;11;7;
62054;PMS5003;48653;51.742;-1.256;2022-07-24T00:42:35;9;6;
62054;PMS5003;48653;51.742;-1.256;2022-07-24T00:45:02;6;5;
62054;PMS5003;48653;51.742;-1.256;2022-07-24T00:47:29;6;6;
62054;PMS5003;48653;51.742;-1.256;2022-07-24T00:49:57;8;7;
62054;PMS5003;48653;51.742;-1.256;2022-07-24T00:52:24;4;4;
62054;PMS5003;48653;51.742;-1.256;2022-07-24T00:54:52;7;7;
62054;PMS5003;48653;51.742;-1.256;2022-07-24T00:57:19;7;7;
62054;PMS5003;48653;51.742;-1.256;2022-07-24T00:59:46;5;5;
62054;PMS5003;48653;51.742;-1.256;2022-07-24T01:02:13;10;7;
62054;PMS5003;48653;51.742;-1.256;2022-07-24T01:04:40;9;7;
62054;PMS5003;48653;51.742;-1.256;2022-07-24T01:07:07;6;6;
62054;PMS5003;48653;51.742;-1.256;2022-07-24T01:09:35;8;6;
62054;PMS5003;48653;51.742;-1.256;2022-07-24T01:12:03;9;8;
62054;PMS5003;48653;51.742;-1.256;2022-07-24T01:14:30;9;6;
62054;PMS5003;48653;51.742;-1.256;2022-07-24T01:16:58;8;7;
62054;PMS5003;48653;51.742;-1.256;2022-07-24T01:19:26;8;8;
62054;PMS5003;48653;51.742;-1.256;2022-07-24T01:21:53;10;9;
62054;PMS5003;48653;51.742;-1.256;2022-07-24T01:24:20;10;7;
62054;PMS5003;48653;51.742;-1.256;2022-07-24T01:26:47;6;6;
62054;PMS5003;48653;51.742;-1.256;2022-07-24T01:29:15;7;7;
62054;PMS5003;48653;51.742;-1.256;2022-07-24T01:31:43;9;9;
62054;PMS5003;48653;51.742;-1.256;2022-07-24T01:34:11;6;6;
62054;PMS5003;48653;51.742;-1.256;2022-07-24T01:36:38;9;8;
62054;PMS5003;48653;51.742;-1.256;2022-07-24T01:39:07;7;7;
62054;PMS5003;48653;51.742;-1.256;2022-07-24T01:41:34;9;9;
62054;PMS5003;48653;51.742;-1.256;2022-07-24T01:44:01;6;5;
62054;PMS5003;48653;51.742;-1.256;2022-07-24T01:46:28;8;8;
62054;PMS5003;48653;51.742;-1.256;2022-07-24T01:48:55;7;7;
62054;PMS5003;48653;51.742;-1.256;2022-07-24T01:51:22;9;9;
62054;PMS5003;48653;51.742;-1.256;2022-07-24T01:53:51;6;6;
62054;PMS5003;48653;51.742;-1.256;2022-07-24T01:56:20;10;7;
62054;PMS5003;48653;51.742;-1.256;2022-07-24T01:58:47;9;7;
62054;PMS5003;48653;51.742;-1.256;2022-07-24T02:01:13;8;8;
62054;PMS5003;48653;51.742;-1.256;2022-07-24T02:03:40;8;8;
62054;PMS5003;48653;51.742;-1.256;2022-07-24T02:06:08;13;11;
62054;PMS5003;48653;51.742;-1.256;2022-07-24T02:08:35;7;5;
62054;PMS5003;48653;51.742;-1.256;2022-07-24T02:11:02;7;7;
62054;PMS5003;48653;51.742;-1.256;2022-07-24T02:13:30;8;8;
62054;PMS5003;48653;51.742;-1.256;2022-07-24T02:15:58;8;7;
62054;PMS5003;48653;51.742;-1.256;2022-07-24T02:18:25;10;8;
62054;PMS5003;48653;51.742;-1.256;2022-07-24T02:20:54;11;9;
62054;PMS5003;48653;51.742;-1.256;2022-07-24T02:23:22;7;6;
62054;PMS5003;48653;51.742;-1.256;2022-07-24T02:25:49;6;6;
62054;PMS5003;48653;51.742;-1.256;2022-07-24T02:28:17;8;8;
62054;PMS5003;48653;51.742;-1.256;2022-07-24T02:30:45;9;8;
62054;PMS5003;48653;51.742;-1.256;2022-07-24T02:33:12;10;8;
62054;PMS5003;48653;51.742;-1.256;2022-07-24T02:35:40;8;6;
62054;PMS5003;48653;51.742;-1.256;2022-07-24T02:38:07;8;7;
62054;PMS5003;48653;51.742;-1.256;2022-07-24T02:40:36;12;10;
62054;PMS5003;48653;51.742;-1.256;2022-07-24T02:43:03;10;9;
62054;PMS5003;48653;51.742;-1.256;2022-07-24T02:45:30;8;7;
62054;PMS5003;48653;51.742;-1.256;2022-07-24T02:47:57;8;8;
62054;PMS5003;48653;51.742;-1.256;2022-07-24T02:50:25;6;6;
62054;PMS5003;48653;51.742;-1.256;2022-07-24T02:52:56;8;6;
62054;PMS5003;48653;51.742;-1.256;2022-07-24T02:55:24;9;6;
62054;PMS5003;48653;51.742;-1.256;2022-07-24T02:57:51;9;7;
62054;PMS5003;48653;51.742;-1.256;2022-07-24T03:00:18;10;10;
62054;PMS5003;48653;51.742;-1.256;2022-07-24T03:02:45;8;6;
62054;PMS5003;48653;51.742;-1.256;2022-07-24T03:05:13;10;7;
62054;PMS5003;48653;51.742;-1.256;2022-07-24T03:07:41;5;4;
62054;PMS5003;48653;51.742;-1.256;2022-07-24T03:10:09;6;6;
62054;PMS5003;48653;51.742;-1.256;2022-07-24T03:12:38;7;6;
62054;PMS5003;48653;51.742;-1.256;2022-07-24T03:15:06;6;5;
62054;PMS5003;48653;51.742;-1.256;2022-07-24T03:17:35;8;5;
62054;PMS5003;48653;51.742;-1.256;2022-07-24T03:20:03;4;4;
62054;PMS5003;48653;51.742;-1.256;2022-07-24T03:22:32;11;10;
62054;PMS5003;48653;51.742;-1.256;2022-07-24T03:24:59;6;6;
62054;PMS5003;48653;51.742;-1.256;2022-07-24T03:27:26;9;8;
62054;PMS5003;48653;51.742;-1.256;2022-07-24T03:29:53;5;5;
62054;PMS5003;48653;51.742;-1.256;2022-07-24T03:32:20;8;7;
62054;PMS5003;48653;51.742;-1.256;2022-07-24T03:34:47;5;5;
62054;PMS5003;48653;51.742;-1.256;2022-07-24T03:37:14;7;7;
62054;PMS5003;48653;51.742;-1.256;2022-07-24T03:39:41;7;6;
62054;PMS5003;48653;51.742;-1.256;2022-07-24T03:42:09;6;5;
62054;PMS5003;48653;51.742;-1.256;2022-07-24T03:44:35;9;8;
62054;PMS5003;48653;51.742;-1.256;2022-07-24T03:47:03;8;8;
62054;PMS5003;48653;51.742;-1.256;2022-07-24T03:49:31;8;8;
62054;PMS5003;48653;51.742;-1.256;2022-07-24T03:52:04;7;7;
62054;PMS5003;48653;51.742;-1.256;2022-07-24T03:54:32;9;8;
62054;PMS5003;48653;51.742;-1.256;2022-07-24T03:56:59;9;5;
62054;PMS5003;48653;51.742;-1.256;2022-07-24T03:59:27;8;8;
62054;PMS5003;48653;51.742;-1.256;2022-07-24T04:01:54;6;5;
62054;PMS5003;48653;51.742;-1.256;2022-07-24T04:04:22;10;8;
62054;PMS5003;48653;51.742;-1.256;2022-07-24T04:06:48;9;7;
62054;PMS5003;48653;51.742;-1.256;2022-07-24T04:09:15;6;6;
62054;PMS5003;48653;51.742;-1.256;2022-07-24T04:11:42;6;6;
62054;PMS5003;48653;51.742;-1.256;2022-07-24T04:14:10;6;6;
62054;PMS5003;48653;51.742;-1.256;2022-07-24T04:16:37;7;7;
62054;PMS5003;48653;51.742;-1.256;2022-07-24T04:19:04;8;7;
62054;PMS5003;48653;51.742;-1.256;2022-07-24T04:21:32;9;8;
62054;PMS5003;48653;51.742;-1.256;2022-07-24T04:24:00;8;8;
62054;PMS5003;48653;51.742;-1.256;2022-07-24T04:26:28;6;6;
62054;PMS5003;48653;51.742;-1.256;2022-07-24T04:28:55;6;6;
62054;PMS5003;48653;51.742;-1.256;2022-07-24T04:31:22;7;7;
62054;PMS5003;48653;51.742;-1.256;2022-07-24T04:33:49;6;5;
62054;PMS5003;48653;51.742;-1.256;2022-07-24T04:36:17;8;8;
62054;PMS5003;48653;51.742;-1.256;2022-07-24T04:38:44;6;6;
62054;PMS5003;48653;51.742;-1.256;2022-07-24T04:41:11;9;6;
62054;PMS5003;48653;51.742;-1.256;2022-07-24T04:43:39;7;5;
62054;PMS5003;48653;51.742;-1.256;2022-07-24T04:46:07;8;7;
62054;PMS5003;48653;51.742;-1.256;2022-07-24T04:48:34;7;7;
62054;PMS5003;48653;51.742;-1.256;2022-07-24T04:51:01;7;5;
62054;PMS5003;48653;51.742;-1.256;2022-07-24T04:53:29;6;6;
62054;PMS5003;48653;51.742;-1.256;2022-07-24T04:55:56;8;5;
62054;PMS5003;48653;51.742;-1.256;2022-07-24T04:58:25;3;3;
62054;PMS5003;48653;51.742;-1.256;2022-07-24T05:00:53;6;6;
62054;PMS5003;48653;51.742;-1.256;2022-07-24T05:03:20;7;6;
62054;PMS5003;48653;51.742;-1.256;2022-07-24T05:05:48;8;5;
62054;PMS5003;48653;51.742;-1.256;2022-07-24T05:08:15;6;6;
62054;PMS5003;48653;51.742;-1.256;2022-07-24T05:10:42;6;6;
62054;PMS5003;48653;51.742;-1.256;2022-07-24T05:13:09;5;4;
62054;PMS5003;48653;51.742;-1.256;2022-07-24T05:15:36;8;8;
62054;PMS5003;48653;51.742;-1.256;2022-07-24T05:18:03;6;6;
62054;PMS5003;48653;51.742;-1.256;2022-07-24T05:20:30;5;3;
62054;PMS5003;48653;51.742;-1.256;2022-07-24T05:22:58;8;5;
62054;PMS5003;48653;51.742;-1.256;2022-07-24T05:25:25;5;5;
62054;PMS5003;48653;51.742;-1.256;2022-07-24T05:27:52;5;5;
62054;PMS5003;48653;51.742;-1.256;2022-07-24T05:30:20;3;3;
62054;PMS5003;48653;51.742;-1.256;2022-07-24T05:32:47;8;6;
62054;PMS5003;48653;51.742;-1.256;2022-07-24T05:35:14;4;4;
62054;PMS5003;48653;51.742;-1.256;2022-07-24T05:37:41;6;6;
62054;PMS5003;48653;51.742;-1.256;2022-07-24T05:40:09;9;5;
62054;PMS5003;48653;51.742;-1.256;2022-07-24T05:42:37;5;3;
62054;PMS5003;48653;51.742;-1.256;2022-07-24T05:45:05;9;6;
62054;PMS5003;48653;51.742;-1.256;2022-07-24T05:47:35;5;5;
62054;PMS5003;48653;51.742;-1.256;2022-07-24T05:50:03;5;5;
62054;PMS5003;48653;51.742;-1.256;2022-07-24T05:52:33;7;3;
62054;PMS5003;48653;51.742;-1.256;2022-07-24T05:55:01;5;4;
62054;PMS5003;48653;51.742;-1.256;2022-07-24T05:57:29;6;5;
62054;PMS5003;48653;51.742;-1.256;2022-07-24T05:59:57;7;5;
62054;PMS5003;48653;51.742;-1.256;2022-07-24T06:02:24;4;4;
62054;PMS5003;48653;51.742;-1.256;2022-07-24T06:04:52;7;7;
62054;PMS5003;48653;51.742;-1.256;2022-07-24T06:07:19;5;5;
62054;PMS5003;48653;51.742;-1.256;2022-07-24T06:09:48;4;4;
62054;PMS5003;48653;51.742;-1.256;2022-07-24T06:12:21;6;4;
62054;PMS5003;48653;51.742;-1.256;2022-07-24T06:14:51;8;8;
62054;PMS5003;48653;51.742;-1.256;2022-07-24T06:17:19;7;6;
62054;PMS5003;48653;51.742;-1.256;2022-07-24T06:19:48;5;5;
62054;PMS5003;48653;51.742;-1.256;2022-07-24T06:22:16;5;5;
62054;PMS5003;48653;51.742;-1.256;2022-07-24T06:24:44;3;3;
62054;PMS5003;48653;51.742;-1.256;2022-07-24T06:27:11;6;4;
62054;PMS5003;48653;51.742;-1.256;2022-07-24T06:29:38;5;5;
62054;PMS5003;48653;51.742;-1.256;2022-07-24T06:32:06;4;4;
62054;PMS5003;48653;51.742;-1.256;2022-07-24T06:34:33;7;5;
62054;PMS5003;48653;51.742;-1.256;2022-07-24T06:37:02;4;4;
62054;PMS5003;48653;51.742;-1.256;2022-07-24T06:39:29;4;4;
62054;PMS5003;48653;51.742;-1.256;2022-07-24T06:41:56;5;5;
62054;PMS5003;48653;51.742;-1.256;2022-07-24T06:44:23;6;5;
62054;PMS5003;48653;51.742;-1.256;2022-07-24T06:46:51;4;4;
62054;PMS5003;48653;51.742;-1.256;2022-07-24T06:49:18;3;3;
62054;PMS5003;48653;51.742;-1.256;2022-07-24T06:51:48;3;3;
62054;PMS5003;48653;51.742;-1.256;2022-07-24T06:54:16;4;4;
62054;PMS5003;48653;51.742;-1.256;2022-07-24T06:56:44;4;3;
62054;PMS5003;48653;51.742;-1.256;2022-07-24T06:59:11;5;4;
62054;PMS5003;48653;51.742;-1.256;2022-07-24T07:01:40;4;4;
62054;PMS5003;48653;51.742;-1.256;2022-07-24T07:04:06;4;4;
62054;PMS5003;48653;51.742;-1.256;2022-07-24T07:06:33;4;4;
62054;PMS5003;48653;51.742;-1.256;2022-07-24T07:09:00;7;5;
62054;PMS5003;48653;51.742;-1.256;2022-07-24T07:11:27;3;3;
62054;PMS5003;48653;51.742;-1.256;2022-07-24T07:13:54;7;4;
62054;PMS5003;48653;51.742;-1.256;2022-07-24T07:16:22;3;3;
62054;PMS5003;48653;51.742;-1.256;2022-07-24T07:18:51;5;3;
62054;PMS5003;48653;51.742;-1.256;2022-07-24T07:21:20;3;3;
62054;PMS5003;48653;51.742;-1.256;2022-07-24T07:23:47;6;3;
62054;PMS5003;48653;51.742;-1.256;2022-07-24T07:26:15;4;4;
62054;PMS5003;48653;51.742;-1.256;2022-07-24T07:28:42;5;4;
62054;PMS5003;48653;51.742;-1.256;2022-07-24T07:31:10;4;3;
62054;PMS5003;48653;51.742;-1.256;2022-07-24T07:33:37;5;4;
62054;PMS5003;48653;51.742;-1.256;2022-07-24T07:36:04;7;7;
62054;PMS5003;48653;51.742;-1.256;2022-07-24T07:38:34;4;4;
62054;PMS5003;48653;51.742;-1.256;2022-07-24T07:41:01;4;4;
62054;PMS5003;48653;51.742;-1.256;2022-07-24T07:43:28;4;4;
62054;PMS5003;48653;51.742;-1.256;2022-07-24T07:45:56;3;3;
62054;PMS5003;48653;51.742;-1.256;2022-07-24T07:48:23;4;4;
62054;PMS5003;48653;51.742;-1.256;2022-07-24T07:50:51;3;3;
62054;PMS5003;48653;51.742;-1.256;2022-07-24T07:53:19;4;4;
62054;PMS5003;48653;51.742;-1.256;2022-07-24T07:55:45;3;3;
62054;PMS5003;48653;51.742;-1.256;2022-07-24T07:58:12;3;3;
62054;PMS5003;48653;51.742;-1.256;2022-07-24T08:00:40;2;2;
62054;PMS5003;48653;51.742;-1.256;2022-07-24T08:03:08;3;3;
62054;PMS5003;48653;51.742;-1.256;2022-07-24T08:05:35;2;2;
62054;PMS5003;48653;51.742;-1.256;2022-07-24T08:08:03;4;4;
62054;PMS5003;48653;51.742;-1.256;2022-07-24T08:10:31;3;3;
62054;PMS5003;48653;51.742;-1.256;2022-07-24T08:12:58;3;3;
62054;PMS5003;48653;51.742;-1.256;2022-07-24T08:15:26;3;3;
62054;PMS5003;48653;51.742;-1.256;2022-07-24T08:17:56;5;3;
62054;PMS5003;48653;51.742;-1.256;2022-07-24T08:20:25;3;2;
62054;PMS5003;48653;51.742;-1.256;2022-07-24T08:22:54;7;7;
62054;PMS5003;48653;51.742;-1.256;2022-07-24T08:25:21;2;2;
62054;PMS5003;48653;51.742;-1.256;2022-07-24T08:27:50;5;5;
62054;PMS5003;48653;51.742;-1.256;2022-07-24T08:30:19;3;3;
62054;PMS5003;48653;51.742;-1.256;2022-07-24T08:32:48;5;5;
62054;PMS5003;48653;51.742;-1.256;2022-07-24T08:35:15;3;3;
62054;PMS5003;48653;51.742;-1.256;2022-07-24T08:37:43;5;5;
62054;PMS5003;48653;51.742;-1.256;2022-07-24T08:40:11;5;5;
62054;PMS5003;48653;51.742;-1.256;2022-07-24T08:42:38;7;3;
62054;PMS5003;48653;51.742;-1.256;2022-07-24T08:45:07;4;4;
62054;PMS5003;48653;51.742;-1.256;2022-07-24T08:47:35;5;4;
62054;PMS5003;48653;51.742;-1.256;2022-07-24T08:50:06;2;2;
62054;PMS5003;48653;51.742;-1.256;2022-07-24T08:52:36;2;2;
62054;PMS5003;48653;51.742;-1.256;2022-07-24T08:55:04;2;2;
62054;PMS5003;48653;51.742;-1.256;2022-07-24T08:57:33;5;3;
62054;PMS5003;48653;51.742;-1.256;2022-07-24T09:00:01;2;2;
62054;PMS5003;48653;51.742;-1.256;2022-07-24T09:02:37;3;3;
62054;PMS5003;48653;51.742;-1.256;2022-07-24T09:05:06;4;2;
62054;PMS5003;48653;51.742;-1.256;2022-07-24T09:07:35;4;3;
62054;PMS5003;48653;51.742;-1.256;2022-07-24T09:10:03;4;2;
62054;PMS5003;48653;51.742;-1.256;2022-07-24T09:12:32;4;3;
62054;PMS5003;48653;51.742;-1.256;2022-07-24T09:15:02;2;1;
62054;PMS5003;48653;51.742;-1.256;2022-07-24T09:17:47;2;2;
62054;PMS5003;48653;51.742;-1.256;2022-07-24T09:20:16;2;1;
62054;PMS5003;48653;51.742;-1.256;2022-07-24T09:22:44;4;4;
62054;PMS5003;48653;51.742;-1.256;2022-07-24T09:25:13;1;1;
62054;PMS5003;48653;51.742;-1.256;2022-07-24T09:27:46;2;2;
62054;PMS5003;48653;51.742;-1.256;2022-07-24T09:30:23;2;2;
62054;PMS5003;48653;51.742;-1.256;2022-07-24T09:32:54;1;1;
62054;PMS5003;48653;51.742;-1.256;2022-07-24T09:35:29;3;3;
62054;PMS5003;48653;51.742;-1.256;2022-07-24T09:37:59;2;2;
62054;PMS5003;48653;51.742;-1.256;2022-07-24T09:40:28;3;1;
62054;PMS5003;48653;51.742;-1.256;2022-07-24T09:43:11;2;2;
62054;PMS5003;48653;51.742;-1.256;2022-07-24T09:45:58;2;2;
62054;PMS5003;48653;51.742;-1.256;2022-07-24T09:48:28;0;0;
62054;PMS5003;48653;51.742;-1.256;2022-07-24T09:50:58;1;1;
62054;PMS5003;48653;51.742;-1.256;2022-07-24T09:53:28;1;1;
62054;PMS5003;48653;51.742;-1.256;2022-07-24T09:55:58;1;1;
62054;PMS5003;48653;51.742;-1.256;2022-07-24T09:58:28;4;2;
62054;PMS5003;48653;51.742;-1.256;2022-07-24T10:00:57;2;2;
62054;PMS5003;48653;51.742;-1.256;2022-07-24T10:03:27;1;1;
62054;PMS5003;48653;51.742;-1.256;2022-07-24T10:05:56;2;1;
62054;PMS5003;48653;51.742;-1.256;2022-07-24T10:08:26;3;2;
62054;PMS5003;48653;51.742;-1.256;2022-07-24T10:10:54;0;0;
62054;PMS5003;48653;51.742;-1.256;2022-07-24T10:13:23;0;0;
62054;PMS5003;48653;51.742;-1.256;2022-07-24T10:15:51;3;0;
62054;PMS5003;48653;51.742;-1.256;2022-07-24T10:18:21;2;1;
62054;PMS5003;48653;51.742;-1.256;2022-07-24T10:20:55;3;3;
62054;PMS5003;48653;51.742;-1.256;2022-07-24T10:23:35;1;1;
62054;PMS5003;48653;51.742;-1.256;2022-07-24T10:26:21;2;1;
62054;PMS5003;48653;51.742;-1.256;2022-07-24T10:29:02;1;1;
62054;PMS5003;48653;51.742;-1.256;2022-07-24T10:31:35;2;2;
62054;PMS5003;48653;51.742;-1.256;2022-07-24T10:34:06;1;1;
62054;PMS5003;48653;51.742;-1.256;2022-07-24T10:36:41;4;2;
62054;PMS5003;48653;51.742;-1.256;2022-07-24T10:39:20;2;2;
62054;PMS5003;48653;51.742;-1.256;2022-07-24T10:42:03;2;2;
62054;PMS5003;48653;51.742;-1.256;2022-07-24T10:44:31;2;2;
62054;PMS5003;48653;51.742;-1.256;2022-07-24T10:47:00;1;1;
62054;PMS5003;48653;51.742;-1.256;2022-07-24T10:49:34;2;2;
62054;PMS5003;48653;51.742;-1.256;2022-07-24T10:52:07;0;0;
62054;PMS5003;48653;51.742;-1.256;2022-07-24T10:54:35;6;3;
62054;PMS5003;48653;51.742;-1.256;2022-07-24T10:57:04;2;2;
62054;PMS5003;48653;51.742;-1.256;2022-07-24T10:59:32;3;1;
62054;PMS5003;48653;51.742;-1.256;2022-07-24T11:02:35;5;5;
62054;PMS5003;48653;51.742;-1.256;2022-07-24T11:05:34;3;3;
62054;PMS5003;48653;51.742;-1.256;2022-07-24T11:08:38;6;4;
62054;PMS5003;48653;51.742;-1.256;2022-07-24T11:11:07;3;3;
62054;PMS5003;48653;51.742;-1.256;2022-07-24T11:13:41;4;4;
62054;PMS5003;48653;51.742;-1.256;2022-07-24T11:16:16;7;6;
62054;PMS5003;48653;51.742;-1.256;2022-07-24T11:19:24;5;4;
62054;PMS5003;48653;51.742;-1.256;2022-07-24T11:22:09;4;4;
62054;PMS5003;48653;51.742;-1.256;2022-07-24T11:24:41;6;4;
62054;PMS5003;48653;51.742;-1.256;2022-07-24T11:27:40;7;5;
62054;PMS5003;48653;51.742;-1.256;2022-07-24T11:30:10;8;6;
62054;PMS5003;48653;51.742;-1.256;2022-07-24T11:32:38;7;6;
62054;PMS5003;48653;51.742;-1.256;2022-07-24T11:35:06;3;3;
62054;PMS5003;48653;51.742;-1.256;2022-07-24T11:37:35;7;7;
62054;PMS5003;48653;51.742;-1.256;2022-07-24T11:40:04;6;6;
62054;PMS5003;48653;51.742;-1.256;2022-07-24T11:42:32;5;5;
62054;PMS5003;48653;51.742;-1.256;2022-07-24T11:44:59;8;7;
62054;PMS5003;48653;51.742;-1.256;2022-07-24T11:47:27;7;5;
62054;PMS5003;48653;51.742;-1.256;2022-07-24T11:49:56;7;6;
62054;PMS5003;48653;51.742;-1.256;2022-07-24T11:52:25;7;6;
62054;PMS5003;48653;51.742;-1.256;2022-07-24T11:54:54;10;9;
62054;PMS5003;48653;51.742;-1.256;2022-07-24T11:57:26;7;6;
62054;PMS5003;48653;51.742;-1.256;2022-07-24T11:59:54;8;8;
62054;PMS5003;48653;51.742;-1.256;2022-07-24T12:02:22;5;5;
62054;PMS5003;48653;51.742;-1.256;2022-07-24T12:04:49;7;7;
62054;PMS5003;48653;51.742;-1.256;2022-07-24T12:07:18;7;6;
62054;PMS5003;48653;51.742;-1.256;2022-07-24T12:09:48;9;7;
62054;PMS5003;48653;51.742;-1.256;2022-07-24T12:12:20;5;5;
62054;PMS5003;48653;51.742;-1.256;2022-07-24T12:14:50;5;4;
62054;PMS5003;48653;51.742;-1.256;2022-07-24T12:17:20;7;6;
62054;PMS5003;48653;51.742;-1.256;2022-07-24T12:19:54;5;5;
62054;PMS5003;48653;51.742;-1.256;2022-07-24T12:22:23;6;6;
62054;PMS5003;48653;51.742;-1.256;2022-07-24T12:24:51;3;3;
62054;PMS5003;48653;51.742;-1.256;2022-07-24T12:28:01;5;4;
62054;PMS5003;48653;51.742;-1.256;2022-07-24T12:30:31;4;3;
62054;PMS5003;48653;51.742;-1.256;2022-07-24T12:33:00;4;3;
62054;PMS5003;48653;51.742;-1.256;2022-07-24T12:35:29;6;4;
62054;PMS5003;48653;51.742;-1.256;2022-07-24T12:37:59;3;3;
62054;PMS5003;48653;51.742;-1.256;2022-07-24T12:40:29;4;4;
62054;PMS5003;48653;51.742;-1.256;2022-07-24T12:43:00;3;3;
62054;PMS5003;48653;51.742;-1.256;2022-07-24T12:45:29;2;2;
62054;PMS5003;48653;51.742;-1.256;2022-07-24T12:48:29;5;3;
62054;PMS5003;48653;51.742;-1.256;2022-07-24T12:50:58;5;3;
62054;PMS5003;48653;51.742;-1.256;2022-07-24T12:53:28;3;3;
62054;PMS5003;48653;51.742;-1.256;2022-07-24T12:56:05;8;4;
62054;PMS5003;48653;51.742;-1.256;2022-07-24T12:58:55;8;4;
62054;PMS5003;48653;51.742;-1.256;2022-07-24T13:01:25;1;1;
62054;PMS5003;48653;51.742;-1.256;2022-07-24T13:03:55;3;3;
62054;PMS5003;48653;51.742;-1.256;2022-07-24T13:06:39;4;4;
62054;PMS5003;48653;51.742;-1.256;2022-07-24T13:09:09;3;3;
62054;PMS5003;48653;51.742;-1.256;2022-07-24T13:11:38;4;3;
62054;PMS5003;48653;51.742;-1.256;2022-07-24T13:14:08;4;4;
62054;PMS5003;48653;51.742;-1.256;2022-07-24T13:16:37;4;4;
62054;PMS5003;48653;51.742;-1.256;2022-07-24T13:19:06;7;7;
62054;PMS5003;48653;51.742;-1.256;2022-07-24T13:21:35;5;5;
62054;PMS5003;48653;51.742;-1.256;2022-07-24T13:24:04;6;6;
62054;PMS5003;48653;51.742;-1.256;2022-07-24T13:26:32;5;4;
62054;PMS5003;48653;51.742;-1.256;2022-07-24T13:29:00;5;5;
62054;PMS5003;48653;51.742;-1.256;2022-07-24T13:31:27;4;4;
62054;PMS5003;48653;51.742;-1.256;2022-07-24T13:33:55;5;5;
62054;PMS5003;48653;51.742;-1.256;2022-07-24T13:36:22;4;4;
62054;PMS5003;48653;51.742;-1.256;2022-07-24T13:38:49;8;6;
62054;PMS5003;48653;51.742;-1.256;2022-07-24T13:41:16;10;6;
62054;PMS5003;48653;51.742;-1.256;2022-07-24T13:43:59;3;3;
62054;PMS5003;48653;51.742;-1.256;2022-07-24T13:46:26;8;6;
62054;PMS5003;48653;51.742;-1.256;2022-07-24T13:48:54;5;5;
62054;PMS5003;48653;51.742;-1.256;2022-07-24T13:51:21;4;4;
62054;PMS5003;48653;51.742;-1.256;2022-07-24T13:53:49;4;4;
62054;PMS5003;48653;51.742;-1.256;2022-07-24T13:56:17;5;5;
62054;PMS5003;48653;51.742;-1.256;2022-07-24T13:58:49;5;5;
62054;PMS5003;48653;51.742;-1.256;2022-07-24T14:01:16;5;5;
62054;PMS5003;48653;51.742;-1.256;2022-07-24T14:03:44;4;4;
62054;PMS5003;48653;51.742;-1.256;2022-07-24T14:06:12;6;4;
62054;PMS5003;48653;51.742;-1.256;2022-07-24T14:08:39;7;6;
62054;PMS5003;48653;51.742;-1.256;2022-07-24T14:11:07;69;60;
62054;PMS5003;48653;51.742;-1.256;2022-07-24T14:13:34;61;58;
62054;PMS5003;48653;51.742;-1.256;2022-07-24T14:16:02;29;25;
62054;PMS5003;48653;51.742;-1.256;2022-07-24T14:18:30;34;34;
62054;PMS5003;48653;51.742;-1.256;2022-07-24T14:21:03;43;40;
62054;PMS5003;48653;51.742;-1.256;2022-07-24T14:23:36;29;27;
62054;PMS5003;48653;51.742;-1.256;2022-07-24T14:26:04;37;35;
62054;PMS5003;48653;51.742;-1.256;2022-07-24T14:28:31;18;16;
62054;PMS5003;48653;51.742;-1.256;2022-07-24T14:30:58;24;23;
62054;PMS5003;48653;51.742;-1.256;2022-07-24T14:33:26;13;10;
62054;PMS5003;48653;51.742;-1.256;2022-07-24T14:35:53;28;28;
62054;PMS5003;48653;51.742;-1.256;2022-07-24T14:38:20;16;12;
62054;PMS5003;48653;51.742;-1.256;2022-07-24T14:40:47;99;78;
62054;PMS5003;48653;51.742;-1.256;2022-07-24T14:43:15;43;38;
62054;PMS5003;48653;51.742;-1.256;2022-07-24T14:45:43;46;40;
62054;PMS5003;48653;51.742;-1.256;2022-07-24T14:48:11;18;16;
62054;PMS5003;48653;51.742;-1.256;2022-07-24T14:50:38;55;49;
62054;PMS5003;48653;51.742;-1.256;2022-07-24T14:53:06;55;45;
62054;PMS5003;48653;51.742;-1.256;2022-07-24T14:55:33;20;18;
62054;PMS5003;48653;51.742;-1.256;2022-07-24T14:58:00;16;15;
62054;PMS5003;48653;51.742;-1.256;2022-07-24T15:00:27;20;18;
62054;PMS5003;48653;51.742;-1.256;2022-07-24T15:02:55;60;52;
62054;PMS5003;48653;51.742;-1.256;2022-07-24T15:05:22;48;43;
62054;PMS5003;48653;51.742;-1.256;2022-07-24T15:07:49;20;16;
62054;PMS5003;48653;51.742;-1.256;2022-07-24T15:10:16;74;67;
62054;PMS5003;48653;51.742;-1.256;2022-07-24T15:12:44;11;9;
62054;PMS5003;48653;51.742;-1.256;2022-07-24T15:15:11;17;17;
62054;PMS5003;48653;51.742;-1.256;2022-07-24T15:17:39;6;5;
62054;PMS5003;48653;51.742;-1.256;2022-07-24T15:20:06;8;5;
62054;PMS5003;48653;51.742;-1.256;2022-07-24T15:22:34;5;5;
62054;PMS5003;48653;51.742;-1.256;2022-07-24T15:25:02;8;6;
62054;PMS5003;48653;51.742;-1.256;2022-07-24T15:27:29;9;8;
62054;PMS5003;48653;51.742;-1.256;2022-07-24T15:29:57;6;6;
62054;PMS5003;48653;51.742;-1.256;2022-07-24T15:32:38;6;6;
62054;PMS5003;48653;51.742;-1.256;2022-07-24T15:35:06;5;5;
62054;PMS5003;48653;51.742;-1.256;2022-07-24T15:37:33;6;5;
62054;PMS5003;48653;51.742;-1.256;2022-07-24T15:40:02;6;6;
62054;PMS5003;48653;51.742;-1.256;2022-07-24T15:42:29;7;5;
62054;PMS5003;48653;51.742;-1.256;2022-07-24T15:44:56;4;4;
62054;PMS5003;48653;51.742;-1.256;2022-07-24T15:47:25;6;5;
62054;PMS5003;48653;51.742;-1.256;2022-07-24T15:49:51;5;5;
62054;PMS5003;48653;51.742;-1.256;2022-07-24T15:52:19;9;7;
62054;PMS5003;48653;51.742;-1.256;2022-07-24T15:54:46;6;6;
62054;PMS5003;48653;51.742;-1.256;2022-07-24T15:57:14;4;4;
62054;PMS5003;48653;51.742;-1.256;2022-07-24T15:59:42;8;5;
62054;PMS5003;48653;51.742;-1.256;2022-07-24T16:02:09;5;5;
62054;PMS5003;48653;51.742;-1.256;2022-07-24T16:04:36;4;4;
62054;PMS5003;48653;51.742;-1.256;2022-07-24T16:07:04;6;5;
62054;PMS5003;48653;51.742;-1.256;2022-07-24T16:09:32;6;4;
62054;PMS5003;48653;51.742;-1.256;2022-07-24T16:11:59;5;4;
62054;PMS5003;48653;51.742;-1.256;2022-07-24T16:14:26;7;5;
62054;PMS5003;48653;51.742;-1.256;2022-07-24T16:16:55;5;5;
62054;PMS5003;48653;51.742;-1.256;2022-07-24T16:19:26;3;3;
62054;PMS5003;48653;51.742;-1.256;2022-07-24T16:21:53;2;2;
62054;PMS5003;48653;51.742;-1.256;2022-07-24T16:24:22;4;4;
62054;PMS5003;48653;51.742;-1.256;2022-07-24T16:26:50;8;6;
62054;PMS5003;48653;51.742;-1.256;2022-07-24T16:31:37;5;4;
62054;PMS5003;48653;51.742;-1.256;2022-07-24T16:34:04;4;4;
62054;PMS5003;48653;51.742;-1.256;2022-07-24T16:36:31;6;5;
62054;PMS5003;48653;51.742;-1.256;2022-07-24T16:38:59;8;6;
62054;PMS5003;48653;51.742;-1.256;2022-07-24T16:41:26;6;6;
62054;PMS5003;48653;51.742;-1.256;2022-07-24T16:43:53;4;4;
62054;PMS5003;48653;51.742;-1.256;2022-07-24T16:46:21;8;6;